sensor_id;sensor_type;location;lat;lon;timestamp;P1;durP1;ratioP1;P2;durP2;ratioP2
74465;SDS011;62916;50.044;15.938;2023-12-20T00:01:54;4.20;;;3.30;;
74465;SDS011;62916;50.044;15.938;2023-12-20T00:04:24;3.50;;;2.90;;
74465;SDS011;62916;50.044;15.938;2023-12-20T00:06:55;3.50;;;2.70;;
74465;SDS011;62916;50.044;15.938;2023-12-20T00:09:26;3.60;;;2.70;;
74465;SDS011;62916;50.044;15.938;2023-12-20T00:11:57;4.70;;;3.10;;
74465;SDS011;62916;50.044;15.938;2023-12-20T00:14:28;4.10;;;3.00;;
74465;SDS011;62916;50.044;15.938;2023-12-20T00:16:59;3.80;;;2.90;;
74465;SDS011;62916;50.044;15.938;2023-12-20T00:19:29;3.70;;;2.60;;
74465;SDS011;62916;50.044;15.938;2023-12-20T00:22:00;3.40;;;3.10;;
74465;SDS011;62916;50.044;15.938;2023-12-20T00:24:31;5.00;;;3.30;;
74465;SDS011;62916;50.044;15.938;2023-12-20T00:27:03;3.30;;;2.70;;
74465;SDS011;62916;50.044;15.938;2023-12-20T00:29:34;4.90;;;3.10;;
74465;SDS011;62916;50.044;15.938;2023-12-20T00:32:06;3.40;;;2.50;;
74465;SDS011;62916;50.044;15.938;2023-12-20T00:34:37;3.20;;;2.70;;
74465;SDS011;62916;50.044;15.938;2023-12-20T00:37:08;3.20;;;2.80;;
74465;SDS011;62916;50.044;15.938;2023-12-20T00:39:38;3.10;;;2.60;;
74465;SDS011;62916;50.044;15.938;2023-12-20T00:42:10;3.30;;;2.40;;
74465;SDS011;62916;50.044;15.938;2023-12-20T00:44:41;3.10;;;2.80;;
74465;SDS011;62916;50.044;15.938;2023-12-20T00:47:11;2.90;;;2.50;;
74465;SDS011;62916;50.044;15.938;2023-12-20T00:49:42;3.70;;;2.50;;
74465;SDS011;62916;50.044;15.938;2023-12-20T00:52:13;3.60;;;2.70;;
74465;SDS011;62916;50.044;15.938;2023-12-20T00:54:45;4.20;;;2.80;;
74465;SDS011;62916;50.044;15.938;2023-12-20T00:57:16;3.80;;;2.40;;
74465;SDS011;62916;50.044;15.938;2023-12-20T00:59:47;3.50;;;2.30;;
74465;SDS011;62916;50.044;15.938;2023-12-20T01:02:17;2.90;;;2.40;;
74465;SDS011;62916;50.044;15.938;2023-12-20T01:04:48;2.70;;;2.30;;
74465;SDS011;62916;50.044;15.938;2023-12-20T01:07:19;3.50;;;2.40;;
74465;SDS011;62916;50.044;15.938;2023-12-20T01:09:50;3.40;;;2.50;;
74465;SDS011;62916;50.044;15.938;2023-12-20T01:12:21;2.80;;;2.20;;
74465;SDS011;62916;50.044;15.938;2023-12-20T01:14:52;2.90;;;2.50;;
74465;SDS011;62916;50.044;15.938;2023-12-20T01:17:24;3.20;;;2.60;;
74465;SDS011;62916;50.044;15.938;2023-12-20T01:19:55;3.40;;;2.40;;
74465;SDS011;62916;50.044;15.938;2023-12-20T01:22:26;2.00;;;1.80;;
74465;SDS011;62916;50.044;15.938;2023-12-20T01:24:56;3.50;;;2.30;;
74465;SDS011;62916;50.044;15.938;2023-12-20T01:27:27;3.30;;;2.70;;
74465;SDS011;62916;50.044;15.938;2023-12-20T01:29:59;2.80;;;2.00;;
74465;SDS011;62916;50.044;15.938;2023-12-20T01:32:29;3.00;;;2.60;;
74465;SDS011;62916;50.044;15.938;2023-12-20T01:35:00;3.10;;;2.30;;
74465;SDS011;62916;50.044;15.938;2023-12-20T01:37:32;2.30;;;2.10;;
74465;SDS011;62916;50.044;15.938;2023-12-20T01:40:03;3.00;;;2.70;;
74465;SDS011;62916;50.044;15.938;2023-12-20T01:42:35;3.10;;;2.10;;
74465;SDS011;62916;50.044;15.938;2023-12-20T01:45:07;3.50;;;2.70;;
74465;SDS011;62916;50.044;15.938;2023-12-20T01:47:39;3.60;;;2.20;;
74465;SDS011;62916;50.044;15.938;2023-12-20T01:50:10;2.50;;;2.00;;
74465;SDS011;62916;50.044;15.938;2023-12-20T01:52:41;3.10;;;2.40;;
74465;SDS011;62916;50.044;15.938;2023-12-20T01:55:12;3.00;;;2.60;;
74465;SDS011;62916;50.044;15.938;2023-12-20T01:57:44;2.70;;;2.30;;
74465;SDS011;62916;50.044;15.938;2023-12-20T02:00:16;3.60;;;2.20;;
74465;SDS011;62916;50.044;15.938;2023-12-20T02:02:51;3.90;;;2.20;;
74465;SDS011;62916;50.044;15.938;2023-12-20T02:05:23;2.70;;;2.10;;
74465;SDS011;62916;50.044;15.938;2023-12-20T02:07:55;2.60;;;2.10;;
74465;SDS011;62916;50.044;15.938;2023-12-20T02:10:27;2.60;;;2.00;;
74465;SDS011;62916;50.044;15.938;2023-12-20T02:12:58;2.30;;;2.10;;
74465;SDS011;62916;50.044;15.938;2023-12-20T02:15:29;3.00;;;2.10;;
74465;SDS011;62916;50.044;15.938;2023-12-20T02:18:00;2.20;;;2.00;;
74465;SDS011;62916;50.044;15.938;2023-12-20T02:20:31;2.70;;;2.00;;
74465;SDS011;62916;50.044;15.938;2023-12-20T02:23:03;3.50;;;2.30;;
74465;SDS011;62916;50.044;15.938;2023-12-20T02:25:34;3.10;;;2.20;;
74465;SDS011;62916;50.044;15.938;2023-12-20T02:28:05;2.50;;;2.10;;
74465;SDS011;62916;50.044;15.938;2023-12-20T02:30:36;2.70;;;2.10;;
74465;SDS011;62916;50.044;15.938;2023-12-20T02:33:08;2.60;;;2.40;;
74465;SDS011;62916;50.044;15.938;2023-12-20T02:35:43;2.40;;;1.80;;
74465;SDS011;62916;50.044;15.938;2023-12-20T02:38:14;3.90;;;1.80;;
74465;SDS011;62916;50.044;15.938;2023-12-20T02:40:45;2.30;;;2.00;;
74465;SDS011;62916;50.044;15.938;2023-12-20T02:43:17;2.30;;;2.10;;
74465;SDS011;62916;50.044;15.938;2023-12-20T02:45:47;3.00;;;1.90;;
74465;SDS011;62916;50.044;15.938;2023-12-20T02:48:18;2.60;;;1.90;;
74465;SDS011;62916;50.044;15.938;2023-12-20T02:50:49;2.90;;;2.00;;
74465;SDS011;62916;50.044;15.938;2023-12-20T02:53:21;2.30;;;1.70;;
74465;SDS011;62916;50.044;15.938;2023-12-20T02:55:52;2.30;;;2.10;;
74465;SDS011;62916;50.044;15.938;2023-12-20T02:58:23;3.30;;;2.00;;
74465;SDS011;62916;50.044;15.938;2023-12-20T03:00:54;2.10;;;1.90;;
74465;SDS011;62916;50.044;15.938;2023-12-20T03:03:25;2.90;;;1.80;;
74465;SDS011;62916;50.044;15.938;2023-12-20T03:05:56;1.80;;;1.60;;
74465;SDS011;62916;50.044;15.938;2023-12-20T03:08:27;2.80;;;2.00;;
74465;SDS011;62916;50.044;15.938;2023-12-20T03:10:59;2.20;;;1.80;;
74465;SDS011;62916;50.044;15.938;2023-12-20T03:13:31;1.80;;;1.50;;
74465;SDS011;62916;50.044;15.938;2023-12-20T03:16:02;2.30;;;1.90;;
74465;SDS011;62916;50.044;15.938;2023-12-20T03:18:39;2.70;;;2.10;;
74465;SDS011;62916;50.044;15.938;2023-12-20T03:21:10;2.20;;;1.70;;
74465;SDS011;62916;50.044;15.938;2023-12-20T03:23:41;2.40;;;2.10;;
74465;SDS011;62916;50.044;15.938;2023-12-20T03:26:12;2.40;;;1.70;;
74465;SDS011;62916;50.044;15.938;2023-12-20T03:28:43;2.40;;;1.90;;
74465;SDS011;62916;50.044;15.938;2023-12-20T03:31:14;1.90;;;1.60;;
74465;SDS011;62916;50.044;15.938;2023-12-20T03:33:45;2.70;;;1.70;;
74465;SDS011;62916;50.044;15.938;2023-12-20T03:36:16;2.20;;;1.80;;
74465;SDS011;62916;50.044;15.938;2023-12-20T03:38:47;1.90;;;1.40;;
74465;SDS011;62916;50.044;15.938;2023-12-20T03:41:18;2.00;;;1.80;;
74465;SDS011;62916;50.044;15.938;2023-12-20T03:43:49;2.70;;;1.60;;
74465;SDS011;62916;50.044;15.938;2023-12-20T03:46:20;2.00;;;1.70;;
74465;SDS011;62916;50.044;15.938;2023-12-20T03:48:51;2.10;;;1.80;;
74465;SDS011;62916;50.044;15.938;2023-12-20T03:51:22;2.40;;;1.70;;
74465;SDS011;62916;50.044;15.938;2023-12-20T03:53:53;2.60;;;2.00;;
74465;SDS011;62916;50.044;15.938;2023-12-20T03:56:24;1.70;;;1.60;;
74465;SDS011;62916;50.044;15.938;2023-12-20T03:58:54;2.20;;;1.60;;
74465;SDS011;62916;50.044;15.938;2023-12-20T04:01:25;2.00;;;1.50;;
74465;SDS011;62916;50.044;15.938;2023-12-20T04:03:56;2.50;;;1.90;;
74465;SDS011;62916;50.044;15.938;2023-12-20T04:06:27;2.30;;;1.50;;
74465;SDS011;62916;50.044;15.938;2023-12-20T04:08:58;2.30;;;1.80;;
74465;SDS011;62916;50.044;15.938;2023-12-20T04:11:29;1.90;;;1.40;;
74465;SDS011;62916;50.044;15.938;2023-12-20T04:14:00;2.40;;;1.60;;
74465;SDS011;62916;50.044;15.938;2023-12-20T04:16:33;1.50;;;1.30;;
74465;SDS011;62916;50.044;15.938;2023-12-20T04:19:04;2.70;;;1.70;;
74465;SDS011;62916;50.044;15.938;2023-12-20T04:21:35;1.70;;;1.50;;
74465;SDS011;62916;50.044;15.938;2023-12-20T04:24:07;2.20;;;2.00;;
74465;SDS011;62916;50.044;15.938;2023-12-20T04:26:37;1.90;;;1.80;;
74465;SDS011;62916;50.044;15.938;2023-12-20T04:29:08;1.60;;;1.40;;
74465;SDS011;62916;50.044;15.938;2023-12-20T04:31:39;3.10;;;2.00;;
74465;SDS011;62916;50.044;15.938;2023-12-20T04:34:10;1.70;;;1.40;;
74465;SDS011;62916;50.044;15.938;2023-12-20T04:36:41;2.00;;;1.40;;
74465;SDS011;62916;50.044;15.938;2023-12-20T04:39:12;1.80;;;1.30;;
74465;SDS011;62916;50.044;15.938;2023-12-20T04:41:44;2.00;;;1.50;;
74465;SDS011;62916;50.044;15.938;2023-12-20T04:44:15;2.40;;;1.60;;
74465;SDS011;62916;50.044;15.938;2023-12-20T04:46:46;2.00;;;1.60;;
74465;SDS011;62916;50.044;15.938;2023-12-20T04:49:17;2.50;;;1.50;;
74465;SDS011;62916;50.044;15.938;2023-12-20T04:51:48;2.30;;;1.50;;
74465;SDS011;62916;50.044;15.938;2023-12-20T04:54:19;2.70;;;1.80;;
74465;SDS011;62916;50.044;15.938;2023-12-20T04:56:50;2.10;;;1.80;;
74465;SDS011;62916;50.044;15.938;2023-12-20T04:59:21;2.30;;;1.50;;
74465;SDS011;62916;50.044;15.938;2023-12-20T05:01:52;2.00;;;1.60;;
74465;SDS011;62916;50.044;15.938;2023-12-20T05:04:23;1.80;;;1.30;;
74465;SDS011;62916;50.044;15.938;2023-12-20T05:06:54;1.90;;;1.70;;
74465;SDS011;62916;50.044;15.938;2023-12-20T05:09:25;1.90;;;1.60;;
74465;SDS011;62916;50.044;15.938;2023-12-20T05:11:57;2.10;;;1.50;;
74465;SDS011;62916;50.044;15.938;2023-12-20T05:14:28;1.80;;;1.50;;
74465;SDS011;62916;50.044;15.938;2023-12-20T05:16:59;2.50;;;1.60;;
74465;SDS011;62916;50.044;15.938;2023-12-20T05:19:31;1.50;;;1.40;;
74465;SDS011;62916;50.044;15.938;2023-12-20T05:22:03;1.50;;;1.30;;
74465;SDS011;62916;50.044;15.938;2023-12-20T05:24:34;1.90;;;1.60;;
74465;SDS011;62916;50.044;15.938;2023-12-20T05:27:05;1.70;;;1.50;;
74465;SDS011;62916;50.044;15.938;2023-12-20T05:29:36;1.60;;;1.50;;
74465;SDS011;62916;50.044;15.938;2023-12-20T05:32:08;2.00;;;1.30;;
74465;SDS011;62916;50.044;15.938;2023-12-20T05:34:39;1.40;;;1.30;;
74465;SDS011;62916;50.044;15.938;2023-12-20T05:37:09;2.40;;;1.40;;
74465;SDS011;62916;50.044;15.938;2023-12-20T05:39:40;1.80;;;1.60;;
74465;SDS011;62916;50.044;15.938;2023-12-20T05:42:12;1.90;;;1.40;;
74465;SDS011;62916;50.044;15.938;2023-12-20T05:44:42;2.30;;;1.30;;
74465;SDS011;62916;50.044;15.938;2023-12-20T05:47:13;1.50;;;1.20;;
74465;SDS011;62916;50.044;15.938;2023-12-20T05:49:45;2.00;;;1.20;;
74465;SDS011;62916;50.044;15.938;2023-12-20T05:52:16;1.40;;;1.30;;
74465;SDS011;62916;50.044;15.938;2023-12-20T05:54:47;1.30;;;1.20;;
74465;SDS011;62916;50.044;15.938;2023-12-20T05:57:18;1.40;;;1.20;;
74465;SDS011;62916;50.044;15.938;2023-12-20T05:59:49;1.50;;;1.20;;
74465;SDS011;62916;50.044;15.938;2023-12-20T06:02:20;1.40;;;1.20;;
74465;SDS011;62916;50.044;15.938;2023-12-20T06:04:51;2.10;;;1.40;;
74465;SDS011;62916;50.044;15.938;2023-12-20T06:07:22;1.50;;;1.20;;
74465;SDS011;62916;50.044;15.938;2023-12-20T06:09:53;2.40;;;1.40;;
74465;SDS011;62916;50.044;15.938;2023-12-20T06:12:25;0.90;;;0.90;;
74465;SDS011;62916;50.044;15.938;2023-12-20T06:14:56;1.80;;;1.40;;
74465;SDS011;62916;50.044;15.938;2023-12-20T06:17:27;1.60;;;1.50;;
74465;SDS011;62916;50.044;15.938;2023-12-20T06:19:59;1.30;;;1.10;;
74465;SDS011;62916;50.044;15.938;2023-12-20T06:22:31;1.90;;;1.00;;
74465;SDS011;62916;50.044;15.938;2023-12-20T06:25:02;1.50;;;1.00;;
74465;SDS011;62916;50.044;15.938;2023-12-20T06:27:34;1.30;;;0.90;;
74465;SDS011;62916;50.044;15.938;2023-12-20T06:30:09;1.30;;;0.90;;
74465;SDS011;62916;50.044;15.938;2023-12-20T06:32:40;1.00;;;0.90;;
74465;SDS011;62916;50.044;15.938;2023-12-20T06:35:11;1.60;;;0.90;;
74465;SDS011;62916;50.044;15.938;2023-12-20T06:37:42;1.30;;;1.00;;
74465;SDS011;62916;50.044;15.938;2023-12-20T06:40:14;1.20;;;1.00;;
74465;SDS011;62916;50.044;15.938;2023-12-20T06:42:46;0.90;;;0.80;;
74465;SDS011;62916;50.044;15.938;2023-12-20T06:45:32;1.20;;;1.00;;
74465;SDS011;62916;50.044;15.938;2023-12-20T06:48:03;1.30;;;1.00;;
74465;SDS011;62916;50.044;15.938;2023-12-20T06:50:35;1.50;;;0.90;;
74465;SDS011;62916;50.044;15.938;2023-12-20T06:53:08;1.40;;;0.80;;
74465;SDS011;62916;50.044;15.938;2023-12-20T06:55:39;2.20;;;1.20;;
74465;SDS011;62916;50.044;15.938;2023-12-20T06:58:09;1.60;;;0.90;;
74465;SDS011;62916;50.044;15.938;2023-12-20T07:00:40;0.80;;;0.70;;
74465;SDS011;62916;50.044;15.938;2023-12-20T07:03:12;1.10;;;0.80;;
74465;SDS011;62916;50.044;15.938;2023-12-20T07:05:43;1.00;;;0.70;;
74465;SDS011;62916;50.044;15.938;2023-12-20T07:08:14;1.10;;;0.90;;
74465;SDS011;62916;50.044;15.938;2023-12-20T07:10:45;1.30;;;0.80;;
74465;SDS011;62916;50.044;15.938;2023-12-20T07:13:16;1.90;;;0.90;;
74465;SDS011;62916;50.044;15.938;2023-12-20T07:15:48;1.40;;;0.90;;
74465;SDS011;62916;50.044;15.938;2023-12-20T07:18:19;1.60;;;0.80;;
74465;SDS011;62916;50.044;15.938;2023-12-20T07:20:50;1.00;;;0.80;;
74465;SDS011;62916;50.044;15.938;2023-12-20T07:23:22;0.60;;;0.60;;
74465;SDS011;62916;50.044;15.938;2023-12-20T07:25:54;1.00;;;0.90;;
74465;SDS011;62916;50.044;15.938;2023-12-20T07:28:25;1.90;;;1.00;;
74465;SDS011;62916;50.044;15.938;2023-12-20T07:30:56;1.20;;;0.70;;
74465;SDS011;62916;50.044;15.938;2023-12-20T07:33:27;0.60;;;0.60;;
74465;SDS011;62916;50.044;15.938;2023-12-20T07:36:07;1.80;;;0.80;;
74465;SDS011;62916;50.044;15.938;2023-12-20T07:38:38;0.90;;;0.90;;
74465;SDS011;62916;50.044;15.938;2023-12-20T07:41:10;1.00;;;0.80;;
74465;SDS011;62916;50.044;15.938;2023-12-20T07:43:41;0.90;;;0.80;;
74465;SDS011;62916;50.044;15.938;2023-12-20T07:46:12;1.30;;;0.50;;
74465;SDS011;62916;50.044;15.938;2023-12-20T07:48:43;1.30;;;0.70;;
74465;SDS011;62916;50.044;15.938;2023-12-20T07:51:15;1.10;;;0.80;;
74465;SDS011;62916;50.044;15.938;2023-12-20T07:53:46;1.20;;;0.80;;
74465;SDS011;62916;50.044;15.938;2023-12-20T07:56:17;1.40;;;0.70;;
74465;SDS011;62916;50.044;15.938;2023-12-20T07:58:49;1.10;;;0.90;;
74465;SDS011;62916;50.044;15.938;2023-12-20T08:01:21;1.10;;;0.70;;
74465;SDS011;62916;50.044;15.938;2023-12-20T08:03:52;1.70;;;0.70;;
74465;SDS011;62916;50.044;15.938;2023-12-20T08:06:24;1.10;;;0.50;;
74465;SDS011;62916;50.044;15.938;2023-12-20T08:08:55;4.70;;;1.00;;
74465;SDS011;62916;50.044;15.938;2023-12-20T08:11:33;2.80;;;1.10;;
74465;SDS011;62916;50.044;15.938;2023-12-20T08:14:05;1.40;;;0.80;;
74465;SDS011;62916;50.044;15.938;2023-12-20T08:16:36;2.50;;;0.60;;
74465;SDS011;62916;50.044;15.938;2023-12-20T08:19:07;3.20;;;0.70;;
74465;SDS011;62916;50.044;15.938;2023-12-20T08:21:38;1.80;;;0.60;;
74465;SDS011;62916;50.044;15.938;2023-12-20T08:24:09;1.90;;;0.80;;
74465;SDS011;62916;50.044;15.938;2023-12-20T08:26:41;1.50;;;0.60;;
74465;SDS011;62916;50.044;15.938;2023-12-20T08:29:13;1.20;;;0.90;;
74465;SDS011;62916;50.044;15.938;2023-12-20T08:31:44;1.40;;;0.80;;
74465;SDS011;62916;50.044;15.938;2023-12-20T08:34:15;1.80;;;1.70;;
74465;SDS011;62916;50.044;15.938;2023-12-20T08:36:46;2.70;;;0.80;;
74465;SDS011;62916;50.044;15.938;2023-12-20T08:39:17;1.60;;;0.90;;
74465;SDS011;62916;50.044;15.938;2023-12-20T08:41:48;1.70;;;1.10;;
74465;SDS011;62916;50.044;15.938;2023-12-20T08:44:20;1.60;;;1.00;;
74465;SDS011;62916;50.044;15.938;2023-12-20T08:46:51;2.60;;;1.10;;
74465;SDS011;62916;50.044;15.938;2023-12-20T08:49:25;1.80;;;0.90;;
74465;SDS011;62916;50.044;15.938;2023-12-20T08:51:56;2.00;;;1.00;;
74465;SDS011;62916;50.044;15.938;2023-12-20T08:54:27;1.70;;;1.20;;
74465;SDS011;62916;50.044;15.938;2023-12-20T08:56:58;1.30;;;0.90;;
74465;SDS011;62916;50.044;15.938;2023-12-20T08:59:30;1.70;;;1.00;;
74465;SDS011;62916;50.044;15.938;2023-12-20T09:02:01;2.00;;;1.10;;
74465;SDS011;62916;50.044;15.938;2023-12-20T09:04:32;3.80;;;1.10;;
74465;SDS011;62916;50.044;15.938;2023-12-20T09:07:04;2.10;;;1.10;;
74465;SDS011;62916;50.044;15.938;2023-12-20T09:09:35;2.60;;;1.10;;
74465;SDS011;62916;50.044;15.938;2023-12-20T09:12:08;2.50;;;1.40;;
74465;SDS011;62916;50.044;15.938;2023-12-20T09:14:40;2.40;;;1.30;;
74465;SDS011;62916;50.044;15.938;2023-12-20T09:17:11;2.10;;;1.30;;
74465;SDS011;62916;50.044;15.938;2023-12-20T09:19:43;2.30;;;1.30;;
74465;SDS011;62916;50.044;15.938;2023-12-20T09:25:03;4.50;;;2.10;;
74465;SDS011;62916;50.044;15.938;2023-12-20T09:27:34;4.50;;;2.50;;
74465;SDS011;62916;50.044;15.938;2023-12-20T09:30:06;5.60;;;2.50;;
74465;SDS011;62916;50.044;15.938;2023-12-20T09:32:38;4.30;;;2.50;;
74465;SDS011;62916;50.044;15.938;2023-12-20T09:35:11;4.40;;;2.80;;
74465;SDS011;62916;50.044;15.938;2023-12-20T09:37:43;5.40;;;2.70;;
74465;SDS011;62916;50.044;15.938;2023-12-20T09:40:15;5.00;;;3.10;;
74465;SDS011;62916;50.044;15.938;2023-12-20T09:45:24;4.80;;;3.10;;
74465;SDS011;62916;50.044;15.938;2023-12-20T09:47:56;5.40;;;3.50;;
74465;SDS011;62916;50.044;15.938;2023-12-20T09:50:28;6.10;;;3.30;;
74465;SDS011;62916;50.044;15.938;2023-12-20T09:53:01;5.70;;;3.60;;
74465;SDS011;62916;50.044;15.938;2023-12-20T09:55:37;6.80;;;3.30;;
74465;SDS011;62916;50.044;15.938;2023-12-20T09:58:10;5.30;;;3.20;;
74465;SDS011;62916;50.044;15.938;2023-12-20T10:00:41;5.70;;;3.90;;
74465;SDS011;62916;50.044;15.938;2023-12-20T10:03:13;5.60;;;3.80;;
74465;SDS011;62916;50.044;15.938;2023-12-20T10:05:44;5.50;;;3.90;;
74465;SDS011;62916;50.044;15.938;2023-12-20T10:08:17;5.60;;;3.70;;
74465;SDS011;62916;50.044;15.938;2023-12-20T10:10:52;6.80;;;4.30;;
74465;SDS011;62916;50.044;15.938;2023-12-20T10:13:25;7.40;;;4.20;;
74465;SDS011;62916;50.044;15.938;2023-12-20T10:15:57;7.00;;;3.90;;
74465;SDS011;62916;50.044;15.938;2023-12-20T10:18:30;5.60;;;4.10;;
74465;SDS011;62916;50.044;15.938;2023-12-20T10:21:06;6.70;;;4.20;;
74465;SDS011;62916;50.044;15.938;2023-12-20T10:23:38;7.90;;;4.80;;
74465;SDS011;62916;50.044;15.938;2023-12-20T10:26:10;6.20;;;3.80;;
74465;SDS011;62916;50.044;15.938;2023-12-20T10:28:49;7.20;;;4.70;;
74465;SDS011;62916;50.044;15.938;2023-12-20T10:31:29;6.20;;;4.00;;
74465;SDS011;62916;50.044;15.938;2023-12-20T10:34:02;7.80;;;4.10;;
74465;SDS011;62916;50.044;15.938;2023-12-20T10:36:33;8.00;;;4.30;;
74465;SDS011;62916;50.044;15.938;2023-12-20T10:39:05;6.20;;;4.30;;
74465;SDS011;62916;50.044;15.938;2023-12-20T10:41:40;8.20;;;4.70;;
74465;SDS011;62916;50.044;15.938;2023-12-20T10:44:13;7.20;;;4.50;;
74465;SDS011;62916;50.044;15.938;2023-12-20T10:46:44;8.00;;;4.50;;
74465;SDS011;62916;50.044;15.938;2023-12-20T10:49:19;8.50;;;5.20;;
74465;SDS011;62916;50.044;15.938;2023-12-20T10:51:51;7.00;;;4.10;;
74465;SDS011;62916;50.044;15.938;2023-12-20T10:54:26;8.90;;;5.30;;
74465;SDS011;62916;50.044;15.938;2023-12-20T10:56:58;8.50;;;5.50;;
74465;SDS011;62916;50.044;15.938;2023-12-20T10:59:30;9.20;;;6.20;;
74465;SDS011;62916;50.044;15.938;2023-12-20T11:02:05;11.60;;;6.60;;
74465;SDS011;62916;50.044;15.938;2023-12-20T11:04:41;14.70;;;6.60;;
74465;SDS011;62916;50.044;15.938;2023-12-20T11:07:21;10.10;;;6.70;;
74465;SDS011;62916;50.044;15.938;2023-12-20T11:09:59;11.80;;;6.40;;
74465;SDS011;62916;50.044;15.938;2023-12-20T11:12:41;11.40;;;6.90;;
74465;SDS011;62916;50.044;15.938;2023-12-20T11:15:17;12.10;;;6.50;;
74465;SDS011;62916;50.044;15.938;2023-12-20T11:17:55;11.60;;;6.90;;
74465;SDS011;62916;50.044;15.938;2023-12-20T11:20:36;11.20;;;6.80;;
74465;SDS011;62916;50.044;15.938;2023-12-20T11:23:09;11.80;;;8.00;;
74465;SDS011;62916;50.044;15.938;2023-12-20T11:25:52;12.20;;;7.10;;
74465;SDS011;62916;50.044;15.938;2023-12-20T11:28:26;12.00;;;7.20;;
74465;SDS011;62916;50.044;15.938;2023-12-20T11:30:58;13.80;;;7.00;;
74465;SDS011;62916;50.044;15.938;2023-12-20T11:33:35;12.80;;;7.30;;
74465;SDS011;62916;50.044;15.938;2023-12-20T11:36:13;10.10;;;6.80;;
74465;SDS011;62916;50.044;15.938;2023-12-20T11:38:50;14.90;;;9.00;;
74465;SDS011;62916;50.044;15.938;2023-12-20T11:41:25;15.30;;;7.70;;
74465;SDS011;62916;50.044;15.938;2023-12-20T11:43:56;11.20;;;7.10;;
74465;SDS011;62916;50.044;15.938;2023-12-20T11:46:29;10.60;;;6.70;;
74465;SDS011;62916;50.044;15.938;2023-12-20T11:49:02;13.10;;;7.50;;
74465;SDS011;62916;50.044;15.938;2023-12-20T11:51:33;12.00;;;7.70;;
74465;SDS011;62916;50.044;15.938;2023-12-20T11:54:04;14.20;;;7.30;;
74465;SDS011;62916;50.044;15.938;2023-12-20T11:56:37;12.10;;;7.30;;
74465;SDS011;62916;50.044;15.938;2023-12-20T11:59:09;10.90;;;6.70;;
74465;SDS011;62916;50.044;15.938;2023-12-20T12:01:50;10.50;;;7.00;;
74465;SDS011;62916;50.044;15.938;2023-12-20T12:04:24;14.00;;;7.40;;
74465;SDS011;62916;50.044;15.938;2023-12-20T12:06:56;12.70;;;7.10;;
74465;SDS011;62916;50.044;15.938;2023-12-20T12:09:27;12.10;;;7.00;;
74465;SDS011;62916;50.044;15.938;2023-12-20T12:11:59;12.80;;;6.20;;
74465;SDS011;62916;50.044;15.938;2023-12-20T12:14:30;11.10;;;6.70;;
74465;SDS011;62916;50.044;15.938;2023-12-20T12:17:03;12.40;;;6.80;;
74465;SDS011;62916;50.044;15.938;2023-12-20T12:22:18;13.90;;;6.70;;
74465;SDS011;62916;50.044;15.938;2023-12-20T12:24:54;13.20;;;7.30;;
74465;SDS011;62916;50.044;15.938;2023-12-20T12:27:41;9.80;;;6.00;;
74465;SDS011;62916;50.044;15.938;2023-12-20T12:30:13;11.50;;;7.20;;
74465;SDS011;62916;50.044;15.938;2023-12-20T12:32:47;14.30;;;7.10;;
74465;SDS011;62916;50.044;15.938;2023-12-20T12:35:18;10.30;;;7.00;;
74465;SDS011;62916;50.044;15.938;2023-12-20T12:37:50;13.90;;;7.00;;
74465;SDS011;62916;50.044;15.938;2023-12-20T12:40:22;10.10;;;6.70;;
74465;SDS011;62916;50.044;15.938;2023-12-20T12:42:53;11.80;;;6.00;;
74465;SDS011;62916;50.044;15.938;2023-12-20T12:45:24;9.00;;;6.30;;
74465;SDS011;62916;50.044;15.938;2023-12-20T12:47:56;13.90;;;6.20;;
74465;SDS011;62916;50.044;15.938;2023-12-20T12:50:27;11.50;;;6.40;;
74465;SDS011;62916;50.044;15.938;2023-12-20T12:52:59;10.00;;;6.50;;
74465;SDS011;62916;50.044;15.938;2023-12-20T12:55:31;10.30;;;5.70;;
74465;SDS011;62916;50.044;15.938;2023-12-20T12:58:04;10.20;;;6.00;;
74465;SDS011;62916;50.044;15.938;2023-12-20T13:00:35;9.50;;;5.70;;
74465;SDS011;62916;50.044;15.938;2023-12-20T13:03:06;9.50;;;5.90;;
74465;SDS011;62916;50.044;15.938;2023-12-20T13:05:38;8.70;;;5.30;;
74465;SDS011;62916;50.044;15.938;2023-12-20T13:08:13;8.20;;;5.10;;
74465;SDS011;62916;50.044;15.938;2023-12-20T13:10:44;8.70;;;5.90;;
74465;SDS011;62916;50.044;15.938;2023-12-20T13:13:15;8.30;;;5.40;;
74465;SDS011;62916;50.044;15.938;2023-12-20T13:15:47;8.80;;;5.10;;
74465;SDS011;62916;50.044;15.938;2023-12-20T13:18:22;8.30;;;5.30;;
74465;SDS011;62916;50.044;15.938;2023-12-20T13:20:54;8.50;;;4.90;;
74465;SDS011;62916;50.044;15.938;2023-12-20T13:23:25;9.20;;;5.30;;
74465;SDS011;62916;50.044;15.938;2023-12-20T13:25:56;8.30;;;5.20;;
74465;SDS011;62916;50.044;15.938;2023-12-20T13:28:27;9.30;;;6.10;;
74465;SDS011;62916;50.044;15.938;2023-12-20T13:30:58;8.70;;;4.90;;
74465;SDS011;62916;50.044;15.938;2023-12-20T13:33:30;8.20;;;4.30;;
74465;SDS011;62916;50.044;15.938;2023-12-20T13:36:01;8.60;;;5.10;;
74465;SDS011;62916;50.044;15.938;2023-12-20T13:41:04;6.10;;;5.20;;
74465;SDS011;62916;50.044;15.938;2023-12-20T13:43:36;10.20;;;5.50;;
74465;SDS011;62916;50.044;15.938;2023-12-20T13:46:07;8.50;;;5.30;;
74465;SDS011;62916;50.044;15.938;2023-12-20T13:48:38;8.90;;;5.30;;
74465;SDS011;62916;50.044;15.938;2023-12-20T13:51:09;9.90;;;5.30;;
74465;SDS011;62916;50.044;15.938;2023-12-20T13:53:40;7.90;;;5.70;;
74465;SDS011;62916;50.044;15.938;2023-12-20T13:56:12;7.30;;;5.00;;
74465;SDS011;62916;50.044;15.938;2023-12-20T13:58:42;9.40;;;5.90;;
74465;SDS011;62916;50.044;15.938;2023-12-20T14:01:15;9.00;;;5.80;;
74465;SDS011;62916;50.044;15.938;2023-12-20T14:03:46;8.70;;;6.30;;
74465;SDS011;62916;50.044;15.938;2023-12-20T14:06:18;8.60;;;6.20;;
74465;SDS011;62916;50.044;15.938;2023-12-20T14:08:49;9.60;;;6.00;;
74465;SDS011;62916;50.044;15.938;2023-12-20T14:11:20;9.60;;;6.00;;
74465;SDS011;62916;50.044;15.938;2023-12-20T14:13:52;9.60;;;6.30;;
74465;SDS011;62916;50.044;15.938;2023-12-20T14:16:25;9.40;;;6.10;;
74465;SDS011;62916;50.044;15.938;2023-12-20T14:18:57;8.90;;;6.60;;
74465;SDS011;62916;50.044;15.938;2023-12-20T14:21:28;9.30;;;6.10;;
74465;SDS011;62916;50.044;15.938;2023-12-20T14:24:00;11.00;;;7.60;;
74465;SDS011;62916;50.044;15.938;2023-12-20T14:26:32;8.90;;;6.50;;
74465;SDS011;62916;50.044;15.938;2023-12-20T14:29:04;8.70;;;6.50;;
74465;SDS011;62916;50.044;15.938;2023-12-20T14:31:37;9.30;;;6.20;;
74465;SDS011;62916;50.044;15.938;2023-12-20T14:34:08;9.00;;;6.60;;
74465;SDS011;62916;50.044;15.938;2023-12-20T14:36:40;9.50;;;8.50;;
74465;SDS011;62916;50.044;15.938;2023-12-20T14:39:11;10.10;;;6.80;;
74465;SDS011;62916;50.044;15.938;2023-12-20T14:41:43;9.60;;;6.80;;
74465;SDS011;62916;50.044;15.938;2023-12-20T14:44:14;8.50;;;7.00;;
74465;SDS011;62916;50.044;15.938;2023-12-20T14:46:46;10.00;;;6.80;;
74465;SDS011;62916;50.044;15.938;2023-12-20T14:49:17;8.90;;;6.80;;
74465;SDS011;62916;50.044;15.938;2023-12-20T14:51:48;9.90;;;7.50;;
74465;SDS011;62916;50.044;15.938;2023-12-20T14:54:19;9.50;;;6.90;;
74465;SDS011;62916;50.044;15.938;2023-12-20T14:56:51;9.10;;;6.90;;
74465;SDS011;62916;50.044;15.938;2023-12-20T14:59:22;9.00;;;7.40;;
74465;SDS011;62916;50.044;15.938;2023-12-20T15:01:53;9.10;;;6.60;;
74465;SDS011;62916;50.044;15.938;2023-12-20T15:04:25;8.20;;;6.40;;
74465;SDS011;62916;50.044;15.938;2023-12-20T15:06:57;7.90;;;6.10;;
74465;SDS011;62916;50.044;15.938;2023-12-20T15:09:29;9.20;;;6.50;;
74465;SDS011;62916;50.044;15.938;2023-12-20T15:12:00;8.10;;;6.20;;